Carlton, Georgia
Current Conditions -  °F | °C
As of 4:58 PM on Sunday 23 Nov 2014 (Local Time) from KAHN Reporting Station
Moderate Rain Moderate Rain  
Wind Chill: 50°   Ceiling: 400
Heat Index: 50°   Visibility: 4mi
Dew Point: 49°   Wind: 12mph
Humidity: 96%   Direction: 70°ENE
Pressure: 29.75"   Gusts: NA
Location:  34.04°N, 83.03°W
Report Text: KAHN 232158Z AUTO 07010KT 4SM RA BR OVC004 10/09 A2975 RMK AO2 PRESFR P0002 T01000094 TSNO $
Loading
Personal Weather Stations






























Interactive Weather Map New forecast layout! Learn more

10-Day Weather Forecast

Advertisements
Track Severe Weather on mobile